sensor_id;sensor_type;location;lat;lon;timestamp;P1;durP1;ratioP1;P2;durP2;ratioP2
35667;SDS011;22158;59.280;17.806;2022-08-14T00:00:08;3.67;;;1.90;;
35667;SDS011;22158;59.280;17.806;2022-08-14T00:02:36;3.17;;;2.03;;
35667;SDS011;22158;59.280;17.806;2022-08-14T00:05:02;3.70;;;2.00;;
35667;SDS011;22158;59.280;17.806;2022-08-14T00:07:29;2.92;;;2.13;;
35667;SDS011;22158;59.280;17.806;2022-08-14T00:09:55;4.85;;;2.13;;
35667;SDS011;22158;59.280;17.806;2022-08-14T00:12:21;4.40;;;2.00;;
35667;SDS011;22158;59.280;17.806;2022-08-14T00:14:48;3.35;;;2.05;;
35667;SDS011;22158;59.280;17.806;2022-08-14T00:17:14;2.28;;;1.77;;
35667;SDS011;22158;59.280;17.806;2022-08-14T00:19:39;2.28;;;1.83;;
35667;SDS011;22158;59.280;17.806;2022-08-14T00:22:05;2.67;;;2.03;;
35667;SDS011;22158;59.280;17.806;2022-08-14T00:24:31;4.97;;;2.03;;
35667;SDS011;22158;59.280;17.806;2022-08-14T00:26:57;4.32;;;1.98;;
35667;SDS011;22158;59.280;17.806;2022-08-14T00:29:22;5.80;;;2.20;;
35667;SDS011;22158;59.280;17.806;2022-08-14T00:31:48;5.65;;;1.98;;
35667;SDS011;22158;59.280;17.806;2022-08-14T00:34:14;2.30;;;1.67;;
35667;SDS011;22158;59.280;17.806;2022-08-14T00:36:40;4.57;;;2.00;;
35667;SDS011;22158;59.280;17.806;2022-08-14T00:39:05;3.97;;;1.95;;
35667;SDS011;22158;59.280;17.806;2022-08-14T00:41:31;9.23;;;2.05;;
35667;SDS011;22158;59.280;17.806;2022-08-14T00:43:57;3.13;;;1.90;;
35667;SDS011;22158;59.280;17.806;2022-08-14T00:46:23;3.17;;;1.85;;
35667;SDS011;22158;59.280;17.806;2022-08-14T00:48:49;2.97;;;1.60;;
35667;SDS011;22158;59.280;17.806;2022-08-14T00:51:15;3.53;;;2.28;;
35667;SDS011;22158;59.280;17.806;2022-08-14T00:53:42;3.55;;;1.92;;
35667;SDS011;22158;59.280;17.806;2022-08-14T00:56:08;5.10;;;2.33;;
35667;SDS011;22158;59.280;17.806;2022-08-14T00:58:35;2.90;;;1.90;;
35667;SDS011;22158;59.280;17.806;2022-08-14T01:01:05;3.22;;;2.22;;
35667;SDS011;22158;59.280;17.806;2022-08-14T01:03:36;3.75;;;2.05;;
35667;SDS011;22158;59.280;17.806;2022-08-14T01:06:04;4.25;;;2.25;;
35667;SDS011;22158;59.280;17.806;2022-08-14T01:08:35;2.50;;;1.75;;
35667;SDS011;22158;59.280;17.806;2022-08-14T01:11:03;3.92;;;2.42;;
35667;SDS011;22158;59.280;17.806;2022-08-14T01:13:31;2.53;;;2.00;;
35667;SDS011;22158;59.280;17.806;2022-08-14T01:16:01;3.95;;;2.40;;
35667;SDS011;22158;59.280;17.806;2022-08-14T01:18:30;3.58;;;2.22;;
35667;SDS011;22158;59.280;17.806;2022-08-14T01:21:32;4.05;;;1.98;;
35667;SDS011;22158;59.280;17.806;2022-08-14T01:24:00;2.63;;;2.08;;
35667;SDS011;22158;59.280;17.806;2022-08-14T01:26:26;2.95;;;2.42;;
35667;SDS011;22158;59.280;17.806;2022-08-14T01:31:38;3.97;;;2.28;;
35667;SDS011;22158;59.280;17.806;2022-08-14T01:34:16;3.53;;;1.90;;
35667;SDS011;22158;59.280;17.806;2022-08-14T01:36:44;5.35;;;2.25;;
35667;SDS011;22158;59.280;17.806;2022-08-14T01:39:11;5.30;;;2.08;;
35667;SDS011;22158;59.280;17.806;2022-08-14T01:41:39;5.70;;;2.13;;
35667;SDS011;22158;59.280;17.806;2022-08-14T01:44:07;5.22;;;2.50;;
35667;SDS011;22158;59.280;17.806;2022-08-14T01:46:37;2.70;;;1.77;;
35667;SDS011;22158;59.280;17.806;2022-08-14T01:49:08;3.38;;;1.88;;
35667;SDS011;22158;59.280;17.806;2022-08-14T01:51:35;2.45;;;1.83;;
35667;SDS011;22158;59.280;17.806;2022-08-14T01:54:11;3.67;;;2.00;;
35667;SDS011;22158;59.280;17.806;2022-08-14T01:56:39;2.72;;;2.03;;
35667;SDS011;22158;59.280;17.806;2022-08-14T02:01:34;2.47;;;2.17;;
35667;SDS011;22158;59.280;17.806;2022-08-14T02:04:00;4.22;;;1.88;;
35667;SDS011;22158;59.280;17.806;2022-08-14T02:06:28;4.32;;;2.47;;
35667;SDS011;22158;59.280;17.806;2022-08-14T02:08:54;3.83;;;2.10;;
35667;SDS011;22158;59.280;17.806;2022-08-14T02:11:19;3.80;;;1.98;;
35667;SDS011;22158;59.280;17.806;2022-08-14T02:13:55;3.47;;;2.65;;
35667;SDS011;22158;59.280;17.806;2022-08-14T02:16:25;2.85;;;1.85;;
35667;SDS011;22158;59.280;17.806;2022-08-14T02:18:57;3.75;;;1.80;;
35667;SDS011;22158;59.280;17.806;2022-08-14T02:23:52;3.85;;;2.20;;
35667;SDS011;22158;59.280;17.806;2022-08-14T02:26:20;4.93;;;2.47;;
35667;SDS011;22158;59.280;17.806;2022-08-14T02:28:49;2.67;;;1.95;;
35667;SDS011;22158;59.280;17.806;2022-08-14T02:31:16;3.22;;;2.25;;
35667;SDS011;22158;59.280;17.806;2022-08-14T02:33:42;9.77;;;3.83;;
35667;SDS011;22158;59.280;17.806;2022-08-14T02:36:09;3.30;;;2.40;;
35667;SDS011;22158;59.280;17.806;2022-08-14T02:38:36;3.28;;;2.17;;
35667;SDS011;22158;59.280;17.806;2022-08-14T02:41:03;5.78;;;2.20;;
35667;SDS011;22158;59.280;17.806;2022-08-14T02:43:32;3.30;;;2.28;;
35667;SDS011;22158;59.280;17.806;2022-08-14T02:45:58;5.78;;;2.42;;
35667;SDS011;22158;59.280;17.806;2022-08-14T02:48:24;6.03;;;2.33;;
35667;SDS011;22158;59.280;17.806;2022-08-14T02:50:56;3.25;;;2.20;;
35667;SDS011;22158;59.280;17.806;2022-08-14T02:53:22;4.88;;;1.90;;
35667;SDS011;22158;59.280;17.806;2022-08-14T02:55:48;4.90;;;2.22;;
35667;SDS011;22158;59.280;17.806;2022-08-14T02:58:14;3.58;;;2.38;;
35667;SDS011;22158;59.280;17.806;2022-08-14T03:00:40;3.13;;;2.30;;
35667;SDS011;22158;59.280;17.806;2022-08-14T03:03:07;2.80;;;1.90;;
35667;SDS011;22158;59.280;17.806;2022-08-14T03:05:32;3.47;;;2.20;;
35667;SDS011;22158;59.280;17.806;2022-08-14T03:08:06;2.40;;;1.98;;
35667;SDS011;22158;59.280;17.806;2022-08-14T03:10:34;3.50;;;2.00;;
35667;SDS011;22158;59.280;17.806;2022-08-14T03:13:00;3.53;;;2.28;;
35667;SDS011;22158;59.280;17.806;2022-08-14T03:15:28;3.60;;;2.50;;
35667;SDS011;22158;59.280;17.806;2022-08-14T03:18:17;3.70;;;2.30;;
35667;SDS011;22158;59.280;17.806;2022-08-14T03:20:47;2.22;;;1.80;;
35667;SDS011;22158;59.280;17.806;2022-08-14T03:23:13;5.03;;;2.50;;
35667;SDS011;22158;59.280;17.806;2022-08-14T03:25:39;7.65;;;2.63;;
35667;SDS011;22158;59.280;17.806;2022-08-14T03:28:05;4.60;;;1.92;;
35667;SDS011;22158;59.280;17.806;2022-08-14T03:30:32;2.72;;;1.98;;
35667;SDS011;22158;59.280;17.806;2022-08-14T03:32:58;3.00;;;2.20;;
35667;SDS011;22158;59.280;17.806;2022-08-14T03:35:24;4.75;;;2.28;;
35667;SDS011;22158;59.280;17.806;2022-08-14T03:37:50;4.82;;;2.17;;
35667;SDS011;22158;59.280;17.806;2022-08-14T03:40:20;3.70;;;2.30;;
35667;SDS011;22158;59.280;17.806;2022-08-14T03:42:50;2.17;;;1.98;;
35667;SDS011;22158;59.280;17.806;2022-08-14T03:45:16;6.85;;;2.40;;
35667;SDS011;22158;59.280;17.806;2022-08-14T03:47:42;2.35;;;2.08;;
35667;SDS011;22158;59.280;17.806;2022-08-14T03:50:09;4.07;;;2.55;;
35667;SDS011;22158;59.280;17.806;2022-08-14T03:52:39;4.10;;;2.42;;
35667;SDS011;22158;59.280;17.806;2022-08-14T03:55:08;5.05;;;2.65;;
35667;SDS011;22158;59.280;17.806;2022-08-14T03:57:37;3.70;;;2.22;;
35667;SDS011;22158;59.280;17.806;2022-08-14T04:00:05;5.45;;;2.03;;
35667;SDS011;22158;59.280;17.806;2022-08-14T04:02:35;5.32;;;2.00;;
35667;SDS011;22158;59.280;17.806;2022-08-14T04:05:02;2.67;;;2.10;;
35667;SDS011;22158;59.280;17.806;2022-08-14T04:07:29;4.90;;;2.58;;
35667;SDS011;22158;59.280;17.806;2022-08-14T04:09:55;4.28;;;2.17;;
35667;SDS011;22158;59.280;17.806;2022-08-14T04:12:21;3.97;;;2.10;;
35667;SDS011;22158;59.280;17.806;2022-08-14T04:14:47;2.85;;;1.85;;
35667;SDS011;22158;59.280;17.806;2022-08-14T04:17:13;4.72;;;2.00;;
35667;SDS011;22158;59.280;17.806;2022-08-14T04:19:38;3.28;;;2.40;;
35667;SDS011;22158;59.280;17.806;2022-08-14T04:22:04;3.75;;;2.50;;
35667;SDS011;22158;59.280;17.806;2022-08-14T04:24:30;4.78;;;2.30;;
35667;SDS011;22158;59.280;17.806;2022-08-14T04:26:56;3.70;;;2.65;;
35667;SDS011;22158;59.280;17.806;2022-08-14T04:29:22;4.18;;;1.90;;
35667;SDS011;22158;59.280;17.806;2022-08-14T04:31:48;2.63;;;1.98;;
35667;SDS011;22158;59.280;17.806;2022-08-14T04:34:15;4.40;;;2.08;;
35667;SDS011;22158;59.280;17.806;2022-08-14T04:36:41;4.60;;;2.40;;
35667;SDS011;22158;59.280;17.806;2022-08-14T04:39:26;7.38;;;2.40;;
35667;SDS011;22158;59.280;17.806;2022-08-14T04:42:10;3.78;;;1.95;;
35667;SDS011;22158;59.280;17.806;2022-08-14T04:44:54;2.40;;;1.90;;
35667;SDS011;22158;59.280;17.806;2022-08-14T04:47:20;4.70;;;2.20;;
35667;SDS011;22158;59.280;17.806;2022-08-14T04:50:05;5.07;;;1.90;;
35667;SDS011;22158;59.280;17.806;2022-08-14T04:52:30;5.03;;;2.30;;
35667;SDS011;22158;59.280;17.806;2022-08-14T04:54:57;3.92;;;2.35;;
35667;SDS011;22158;59.280;17.806;2022-08-14T04:57:23;5.10;;;1.85;;
35667;SDS011;22158;59.280;17.806;2022-08-14T04:59:49;2.53;;;1.67;;
35667;SDS011;22158;59.280;17.806;2022-08-14T05:02:18;4.82;;;2.20;;
35667;SDS011;22158;59.280;17.806;2022-08-14T05:04:51;3.63;;;2.30;;
35667;SDS011;22158;59.280;17.806;2022-08-14T05:07:16;3.60;;;2.20;;
35667;SDS011;22158;59.280;17.806;2022-08-14T05:09:42;5.03;;;2.20;;
35667;SDS011;22158;59.280;17.806;2022-08-14T05:12:08;2.25;;;2.05;;
35667;SDS011;22158;59.280;17.806;2022-08-14T05:14:34;3.03;;;2.20;;
35667;SDS011;22158;59.280;17.806;2022-08-14T05:16:59;4.35;;;2.10;;
35667;SDS011;22158;59.280;17.806;2022-08-14T05:19:25;2.08;;;1.77;;
35667;SDS011;22158;59.280;17.806;2022-08-14T05:21:51;5.10;;;2.10;;
35667;SDS011;22158;59.280;17.806;2022-08-14T05:24:26;2.90;;;1.77;;
35667;SDS011;22158;59.280;17.806;2022-08-14T05:26:51;2.83;;;2.00;;
35667;SDS011;22158;59.280;17.806;2022-08-14T05:29:18;7.13;;;2.10;;
35667;SDS011;22158;59.280;17.806;2022-08-14T05:31:44;4.22;;;2.28;;
35667;SDS011;22158;59.280;17.806;2022-08-14T05:34:09;5.85;;;2.03;;
35667;SDS011;22158;59.280;17.806;2022-08-14T05:36:35;4.78;;;1.77;;
35667;SDS011;22158;59.280;17.806;2022-08-14T05:39:02;4.95;;;2.85;;
35667;SDS011;22158;59.280;17.806;2022-08-14T05:41:28;5.82;;;1.90;;
35667;SDS011;22158;59.280;17.806;2022-08-14T05:43:54;4.50;;;2.03;;
35667;SDS011;22158;59.280;17.806;2022-08-14T05:46:20;9.32;;;2.03;;
35667;SDS011;22158;59.280;17.806;2022-08-14T05:48:48;5.55;;;2.38;;
35667;SDS011;22158;59.280;17.806;2022-08-14T05:51:15;2.95;;;1.83;;
35667;SDS011;22158;59.280;17.806;2022-08-14T05:53:41;3.65;;;1.98;;
35667;SDS011;22158;59.280;17.806;2022-08-14T05:56:07;6.55;;;1.77;;
35667;SDS011;22158;59.280;17.806;2022-08-14T05:58:33;3.92;;;2.08;;
35667;SDS011;22158;59.280;17.806;2022-08-14T06:00:58;3.65;;;1.80;;
35667;SDS011;22158;59.280;17.806;2022-08-14T06:03:24;2.88;;;1.90;;
35667;SDS011;22158;59.280;17.806;2022-08-14T06:05:51;2.75;;;1.70;;
35667;SDS011;22158;59.280;17.806;2022-08-14T06:08:23;4.97;;;1.63;;
35667;SDS011;22158;59.280;17.806;2022-08-14T06:10:51;5.22;;;2.03;;
35667;SDS011;22158;59.280;17.806;2022-08-14T06:13:18;4.25;;;1.95;;
35667;SDS011;22158;59.280;17.806;2022-08-14T06:15:44;2.03;;;1.67;;
35667;SDS011;22158;59.280;17.806;2022-08-14T06:18:11;5.90;;;2.17;;
35667;SDS011;22158;59.280;17.806;2022-08-14T06:20:37;2.63;;;1.90;;
35667;SDS011;22158;59.280;17.806;2022-08-14T06:23:03;3.83;;;1.70;;
35667;SDS011;22158;59.280;17.806;2022-08-14T06:25:29;5.15;;;1.80;;
35667;SDS011;22158;59.280;17.806;2022-08-14T06:27:55;4.75;;;1.70;;
35667;SDS011;22158;59.280;17.806;2022-08-14T06:30:22;4.63;;;1.45;;
35667;SDS011;22158;59.280;17.806;2022-08-14T06:32:50;4.65;;;1.80;;
35667;SDS011;22158;59.280;17.806;2022-08-14T06:35:16;2.72;;;1.73;;
35667;SDS011;22158;59.280;17.806;2022-08-14T06:37:54;2.75;;;1.60;;
35667;SDS011;22158;59.280;17.806;2022-08-14T06:40:23;2.58;;;1.60;;
35667;SDS011;22158;59.280;17.806;2022-08-14T06:42:57;2.63;;;1.50;;
35667;SDS011;22158;59.280;17.806;2022-08-14T06:45:25;4.72;;;1.63;;
35667;SDS011;22158;59.280;17.806;2022-08-14T06:47:51;2.53;;;1.40;;
35667;SDS011;22158;59.280;17.806;2022-08-14T06:50:18;3.17;;;1.55;;
35667;SDS011;22158;59.280;17.806;2022-08-14T06:52:45;2.83;;;1.63;;
35667;SDS011;22158;59.280;17.806;2022-08-14T06:55:13;3.88;;;2.25;;
35667;SDS011;22158;59.280;17.806;2022-08-14T06:57:43;2.80;;;1.30;;
35667;SDS011;22158;59.280;17.806;2022-08-14T07:00:14;1.80;;;1.27;;
35667;SDS011;22158;59.280;17.806;2022-08-14T07:02:42;3.30;;;1.52;;
35667;SDS011;22158;59.280;17.806;2022-08-14T07:05:27;5.75;;;1.80;;
35667;SDS011;22158;59.280;17.806;2022-08-14T07:10:38;2.50;;;1.75;;
35667;SDS011;22158;59.280;17.806;2022-08-14T07:13:04;3.40;;;1.67;;
35667;SDS011;22158;59.280;17.806;2022-08-14T07:15:30;1.60;;;1.20;;
35667;SDS011;22158;59.280;17.806;2022-08-14T07:17:57;3.97;;;1.50;;
35667;SDS011;22158;59.280;17.806;2022-08-14T07:20:22;3.50;;;1.48;;
35667;SDS011;22158;59.280;17.806;2022-08-14T07:22:48;2.03;;;1.42;;
35667;SDS011;22158;59.280;17.806;2022-08-14T07:25:14;2.58;;;1.58;;
35667;SDS011;22158;59.280;17.806;2022-08-14T07:27:40;3.30;;;1.58;;
35667;SDS011;22158;59.280;17.806;2022-08-14T07:30:07;6.03;;;1.92;;
35667;SDS011;22158;59.280;17.806;2022-08-14T07:32:33;5.18;;;1.63;;
35667;SDS011;22158;59.280;17.806;2022-08-14T07:34:59;3.83;;;1.70;;
35667;SDS011;22158;59.280;17.806;2022-08-14T07:37:25;4.28;;;2.08;;
35667;SDS011;22158;59.280;17.806;2022-08-14T07:39:51;3.65;;;2.08;;
35667;SDS011;22158;59.280;17.806;2022-08-14T07:42:16;4.13;;;1.63;;
35667;SDS011;22158;59.280;17.806;2022-08-14T07:44:42;5.20;;;1.90;;
35667;SDS011;22158;59.280;17.806;2022-08-14T07:47:08;2.58;;;1.50;;
35667;SDS011;22158;59.280;17.806;2022-08-14T07:49:33;3.78;;;1.92;;
35667;SDS011;22158;59.280;17.806;2022-08-14T07:52:00;2.75;;;1.30;;
35667;SDS011;22158;59.280;17.806;2022-08-14T07:54:27;3.63;;;1.63;;
35667;SDS011;22158;59.280;17.806;2022-08-14T07:56:58;2.67;;;1.50;;
35667;SDS011;22158;59.280;17.806;2022-08-14T07:59:24;4.93;;;1.35;;
35667;SDS011;22158;59.280;17.806;2022-08-14T08:01:50;4.22;;;1.33;;
35667;SDS011;22158;59.280;17.806;2022-08-14T08:04:20;7.53;;;2.50;;
35667;SDS011;22158;59.280;17.806;2022-08-14T08:06:48;2.47;;;1.45;;
35667;SDS011;22158;59.280;17.806;2022-08-14T08:09:15;6.20;;;1.60;;
35667;SDS011;22158;59.280;17.806;2022-08-14T08:11:44;3.33;;;1.40;;
35667;SDS011;22158;59.280;17.806;2022-08-14T08:14:10;1.83;;;1.65;;
35667;SDS011;22158;59.280;17.806;2022-08-14T08:16:36;3.95;;;1.67;;
35667;SDS011;22158;59.280;17.806;2022-08-14T08:19:02;5.57;;;1.60;;
35667;SDS011;22158;59.280;17.806;2022-08-14T08:21:28;3.20;;;1.48;;
35667;SDS011;22158;59.280;17.806;2022-08-14T08:23:54;3.92;;;1.48;;
35667;SDS011;22158;59.280;17.806;2022-08-14T08:26:20;3.63;;;1.60;;
35667;SDS011;22158;59.280;17.806;2022-08-14T08:28:56;2.35;;;1.70;;
35667;SDS011;22158;59.280;17.806;2022-08-14T08:31:22;2.55;;;1.77;;
35667;SDS011;22158;59.280;17.806;2022-08-14T08:33:52;3.10;;;1.52;;
35667;SDS011;22158;59.280;17.806;2022-08-14T08:36:18;5.88;;;1.60;;
35667;SDS011;22158;59.280;17.806;2022-08-14T08:38:44;5.85;;;1.70;;
35667;SDS011;22158;59.280;17.806;2022-08-14T08:41:13;2.25;;;1.60;;
35667;SDS011;22158;59.280;17.806;2022-08-14T08:43:39;1.40;;;1.27;;
35667;SDS011;22158;59.280;17.806;2022-08-14T08:46:06;1.67;;;1.23;;
35667;SDS011;22158;59.280;17.806;2022-08-14T08:48:44;2.47;;;1.80;;
35667;SDS011;22158;59.280;17.806;2022-08-14T08:51:34;4.57;;;1.70;;
35667;SDS011;22158;59.280;17.806;2022-08-14T08:56:40;2.83;;;1.50;;
35667;SDS011;22158;59.280;17.806;2022-08-14T08:59:16;5.50;;;1.55;;
35667;SDS011;22158;59.280;17.806;2022-08-14T09:01:45;3.45;;;1.70;;
35667;SDS011;22158;59.280;17.806;2022-08-14T09:04:16;2.97;;;1.58;;
35667;SDS011;22158;59.280;17.806;2022-08-14T09:06:43;3.03;;;1.85;;
35667;SDS011;22158;59.280;17.806;2022-08-14T09:09:17;2.35;;;1.50;;
35667;SDS011;22158;59.280;17.806;2022-08-14T09:11:44;3.53;;;1.65;;
35667;SDS011;22158;59.280;17.806;2022-08-14T09:14:10;3.25;;;1.65;;
35667;SDS011;22158;59.280;17.806;2022-08-14T09:16:35;3.80;;;1.42;;
35667;SDS011;22158;59.280;17.806;2022-08-14T09:19:02;3.42;;;1.20;;
35667;SDS011;22158;59.280;17.806;2022-08-14T09:21:28;3.03;;;1.20;;
35667;SDS011;22158;59.280;17.806;2022-08-14T09:23:54;4.57;;;1.30;;
35667;SDS011;22158;59.280;17.806;2022-08-14T09:26:20;2.58;;;1.45;;
35667;SDS011;22158;59.280;17.806;2022-08-14T09:28:46;3.85;;;1.33;;
35667;SDS011;22158;59.280;17.806;2022-08-14T09:31:11;2.35;;;1.13;;
35667;SDS011;22158;59.280;17.806;2022-08-14T09:36:47;1.58;;;1.27;;
35667;SDS011;22158;59.280;17.806;2022-08-14T09:42:37;3.47;;;1.50;;
35667;SDS011;22158;59.280;17.806;2022-08-14T09:47:44;1.13;;;0.93;;
35667;SDS011;22158;59.280;17.806;2022-08-14T09:50:24;2.00;;;1.20;;
35667;SDS011;22158;59.280;17.806;2022-08-14T09:52:57;3.97;;;1.25;;
35667;SDS011;22158;59.280;17.806;2022-08-14T09:55:27;4.20;;;1.35;;
35667;SDS011;22158;59.280;17.806;2022-08-14T09:58:34;2.15;;;1.15;;
35667;SDS011;22158;59.280;17.806;2022-08-14T10:01:06;2.97;;;1.73;;
35667;SDS011;22158;59.280;17.806;2022-08-14T10:03:34;3.08;;;1.13;;
35667;SDS011;22158;59.280;17.806;2022-08-14T10:06:08;5.25;;;1.50;;
35667;SDS011;22158;59.280;17.806;2022-08-14T10:08:39;1.92;;;1.40;;
35667;SDS011;22158;59.280;17.806;2022-08-14T10:11:28;3.67;;;1.23;;
35667;SDS011;22158;59.280;17.806;2022-08-14T10:14:10;1.60;;;1.25;;
35667;SDS011;22158;59.280;17.806;2022-08-14T10:16:42;2.83;;;1.08;;
35667;SDS011;22158;59.280;17.806;2022-08-14T10:19:13;1.47;;;1.07;;
35667;SDS011;22158;59.280;17.806;2022-08-14T10:21:43;3.65;;;1.25;;
35667;SDS011;22158;59.280;17.806;2022-08-14T10:24:25;2.70;;;1.38;;
35667;SDS011;22158;59.280;17.806;2022-08-14T10:26:56;4.07;;;1.42;;
35667;SDS011;22158;59.280;17.806;2022-08-14T10:29:34;2.80;;;0.98;;
35667;SDS011;22158;59.280;17.806;2022-08-14T10:32:02;2.03;;;1.05;;
35667;SDS011;22158;59.280;17.806;2022-08-14T10:34:35;2.05;;;0.90;;
35667;SDS011;22158;59.280;17.806;2022-08-14T10:37:07;2.10;;;1.10;;
35667;SDS011;22158;59.280;17.806;2022-08-14T10:39:38;1.63;;;1.02;;
35667;SDS011;22158;59.280;17.806;2022-08-14T10:42:05;1.38;;;1.00;;
35667;SDS011;22158;59.280;17.806;2022-08-14T10:44:34;3.17;;;1.08;;
35667;SDS011;22158;59.280;17.806;2022-08-14T10:47:02;1.55;;;1.27;;
35667;SDS011;22158;59.280;17.806;2022-08-14T10:49:38;1.25;;;1.10;;
35667;SDS011;22158;59.280;17.806;2022-08-14T10:52:10;5.13;;;1.58;;
35667;SDS011;22158;59.280;17.806;2022-08-14T10:54:44;1.80;;;1.20;;
35667;SDS011;22158;59.280;17.806;2022-08-14T10:57:11;2.78;;;1.17;;
35667;SDS011;22158;59.280;17.806;2022-08-14T10:59:45;2.03;;;0.90;;
35667;SDS011;22158;59.280;17.806;2022-08-14T11:05:02;1.57;;;1.10;;
35667;SDS011;22158;59.280;17.806;2022-08-14T11:07:31;1.63;;;0.93;;
35667;SDS011;22158;59.280;17.806;2022-08-14T11:10:05;1.63;;;1.00;;
35667;SDS011;22158;59.280;17.806;2022-08-14T11:12:41;1.42;;;1.00;;
35667;SDS011;22158;59.280;17.806;2022-08-14T11:15:15;3.38;;;1.10;;
35667;SDS011;22158;59.280;17.806;2022-08-14T11:17:47;2.70;;;1.00;;
35667;SDS011;22158;59.280;17.806;2022-08-14T11:20:14;2.30;;;1.00;;
35667;SDS011;22158;59.280;17.806;2022-08-14T11:22:42;2.45;;;1.27;;
35667;SDS011;22158;59.280;17.806;2022-08-14T11:25:11;3.95;;;1.00;;
35667;SDS011;22158;59.280;17.806;2022-08-14T11:27:39;1.90;;;1.37;;
35667;SDS011;22158;59.280;17.806;2022-08-14T11:30:11;3.13;;;1.20;;
35667;SDS011;22158;59.280;17.806;2022-08-14T11:32:39;1.83;;;1.00;;
35667;SDS011;22158;59.280;17.806;2022-08-14T11:35:11;2.00;;;0.95;;
35667;SDS011;22158;59.280;17.806;2022-08-14T11:40:23;1.52;;;1.02;;
35667;SDS011;22158;59.280;17.806;2022-08-14T11:42:51;1.98;;;1.17;;
35667;SDS011;22158;59.280;17.806;2022-08-14T11:47:51;1.20;;;0.93;;
35667;SDS011;22158;59.280;17.806;2022-08-14T11:50:21;1.33;;;0.82;;
35667;SDS011;22158;59.280;17.806;2022-08-14T11:52:56;3.05;;;1.38;;
35667;SDS011;22158;59.280;17.806;2022-08-14T11:55:24;1.60;;;0.90;;
35667;SDS011;22158;59.280;17.806;2022-08-14T11:58:01;0.60;;;0.52;;
35667;SDS011;22158;59.280;17.806;2022-08-14T12:00:49;2.67;;;0.93;;
35667;SDS011;22158;59.280;17.806;2022-08-14T12:03:17;2.28;;;0.95;;
35667;SDS011;22158;59.280;17.806;2022-08-14T12:05:43;7.00;;;1.45;;
35667;SDS011;22158;59.280;17.806;2022-08-14T12:08:10;1.90;;;1.00;;
35667;SDS011;22158;59.280;17.806;2022-08-14T12:10:38;7.53;;;2.10;;
35667;SDS011;22158;59.280;17.806;2022-08-14T12:13:10;2.95;;;0.70;;
35667;SDS011;22158;59.280;17.806;2022-08-14T12:15:40;1.42;;;0.93;;
35667;SDS011;22158;59.280;17.806;2022-08-14T12:18:07;8.15;;;1.13;;
35667;SDS011;22158;59.280;17.806;2022-08-14T12:20:34;2.08;;;0.90;;
35667;SDS011;22158;59.280;17.806;2022-08-14T12:23:02;4.40;;;1.00;;
35667;SDS011;22158;59.280;17.806;2022-08-14T12:25:29;1.77;;;0.93;;
35667;SDS011;22158;59.280;17.806;2022-08-14T12:27:56;1.30;;;0.90;;
35667;SDS011;22158;59.280;17.806;2022-08-14T12:32:58;3.50;;;1.00;;
35667;SDS011;22158;59.280;17.806;2022-08-14T12:35:42;1.65;;;1.05;;
35667;SDS011;22158;59.280;17.806;2022-08-14T12:38:09;3.90;;;1.13;;
35667;SDS011;22158;59.280;17.806;2022-08-14T12:40:49;2.13;;;1.05;;
35667;SDS011;22158;59.280;17.806;2022-08-14T12:43:18;1.67;;;1.02;;
35667;SDS011;22158;59.280;17.806;2022-08-14T12:45:49;6.40;;;1.63;;
35667;SDS011;22158;59.280;17.806;2022-08-14T12:48:19;1.83;;;0.95;;
35667;SDS011;22158;59.280;17.806;2022-08-14T12:50:46;3.15;;;1.45;;
35667;SDS011;22158;59.280;17.806;2022-08-14T12:53:15;4.45;;;1.15;;
35667;SDS011;22158;59.280;17.806;2022-08-14T12:55:42;3.05;;;1.55;;
35667;SDS011;22158;59.280;17.806;2022-08-14T12:58:08;2.35;;;1.25;;
35667;SDS011;22158;59.280;17.806;2022-08-14T13:00:38;4.05;;;1.42;;
35667;SDS011;22158;59.280;17.806;2022-08-14T13:03:25;6.28;;;1.77;;
35667;SDS011;22158;59.280;17.806;2022-08-14T13:05:52;6.13;;;1.63;;
35667;SDS011;22158;59.280;17.806;2022-08-14T13:08:19;2.67;;;1.75;;
35667;SDS011;22158;59.280;17.806;2022-08-14T13:10:46;5.72;;;1.60;;
35667;SDS011;22158;59.280;17.806;2022-08-14T13:13:14;3.95;;;1.83;;
35667;SDS011;22158;59.280;17.806;2022-08-14T13:15:42;5.90;;;1.50;;
35667;SDS011;22158;59.280;17.806;2022-08-14T13:18:09;7.88;;;1.50;;
35667;SDS011;22158;59.280;17.806;2022-08-14T13:20:37;8.10;;;2.40;;
35667;SDS011;22158;59.280;17.806;2022-08-14T13:23:05;5.30;;;1.70;;
35667;SDS011;22158;59.280;17.806;2022-08-14T13:25:33;8.68;;;1.60;;
35667;SDS011;22158;59.280;17.806;2022-08-14T13:28:02;5.90;;;1.77;;
35667;SDS011;22158;59.280;17.806;2022-08-14T13:30:30;9.10;;;2.15;;
35667;SDS011;22158;59.280;17.806;2022-08-14T13:32:56;5.03;;;1.80;;
35667;SDS011;22158;59.280;17.806;2022-08-14T13:35:22;8.52;;;1.80;;
35667;SDS011;22158;59.280;17.806;2022-08-14T13:37:49;7.30;;;1.70;;
35667;SDS011;22158;59.280;17.806;2022-08-14T13:40:18;6.38;;;1.92;;
35667;SDS011;22158;59.280;17.806;2022-08-14T13:42:48;7.50;;;1.80;;
35667;SDS011;22158;59.280;17.806;2022-08-14T13:45:16;5.07;;;1.85;;
35667;SDS011;22158;59.280;17.806;2022-08-14T13:47:43;4.63;;;1.77;;
35667;SDS011;22158;59.280;17.806;2022-08-14T13:50:10;4.47;;;1.98;;
35667;SDS011;22158;59.280;17.806;2022-08-14T13:52:39;4.32;;;1.77;;
35667;SDS011;22158;59.280;17.806;2022-08-14T13:55:21;6.53;;;1.95;;
35667;SDS011;22158;59.280;17.806;2022-08-14T13:57:49;4.70;;;1.75;;
35667;SDS011;22158;59.280;17.806;2022-08-14T14:00:16;3.75;;;1.75;;
35667;SDS011;22158;59.280;17.806;2022-08-14T14:02:43;16.02;;;2.38;;
35667;SDS011;22158;59.280;17.806;2022-08-14T14:05:14;4.78;;;1.88;;
35667;SDS011;22158;59.280;17.806;2022-08-14T14:07:49;5.82;;;2.17;;
35667;SDS011;22158;59.280;17.806;2022-08-14T14:10:18;7.63;;;2.00;;
35667;SDS011;22158;59.280;17.806;2022-08-14T14:12:46;5.30;;;1.67;;
35667;SDS011;22158;59.280;17.806;2022-08-14T14:15:14;10.73;;;2.45;;
35667;SDS011;22158;59.280;17.806;2022-08-14T14:17:42;4.18;;;1.88;;
35667;SDS011;22158;59.280;17.806;2022-08-14T14:20:12;11.77;;;1.97;;
35667;SDS011;22158;59.280;17.806;2022-08-14T14:22:43;5.45;;;2.35;;
35667;SDS011;22158;59.280;17.806;2022-08-14T14:25:12;5.15;;;1.83;;
35667;SDS011;22158;59.280;17.806;2022-08-14T14:27:40;4.95;;;2.10;;
35667;SDS011;22158;59.280;17.806;2022-08-14T14:30:09;6.95;;;2.00;;
35667;SDS011;22158;59.280;17.806;2022-08-14T14:32:37;6.72;;;1.90;;
35667;SDS011;22158;59.280;17.806;2022-08-14T14:35:10;3.45;;;1.83;;
35667;SDS011;22158;59.280;17.806;2022-08-14T14:37:39;7.27;;;2.00;;
35667;SDS011;22158;59.280;17.806;2022-08-14T14:40:06;9.13;;;2.03;;
35667;SDS011;22158;59.280;17.806;2022-08-14T14:42:32;13.10;;;2.30;;
35667;SDS011;22158;59.280;17.806;2022-08-14T14:47:52;10.10;;;2.35;;
35667;SDS011;22158;59.280;17.806;2022-08-14T14:50:20;9.25;;;2.85;;
35667;SDS011;22158;59.280;17.806;2022-08-14T14:52:47;5.53;;;1.95;;
35667;SDS011;22158;59.280;17.806;2022-08-14T14:55:14;8.52;;;2.08;;
35667;SDS011;22158;59.280;17.806;2022-08-14T14:57:41;9.65;;;2.25;;
35667;SDS011;22158;59.280;17.806;2022-08-14T15:00:09;7.72;;;2.60;;
35667;SDS011;22158;59.280;17.806;2022-08-14T15:02:38;5.07;;;1.92;;
35667;SDS011;22158;59.280;17.806;2022-08-14T15:05:06;5.28;;;2.80;;
35667;SDS011;22158;59.280;17.806;2022-08-14T15:07:33;7.13;;;2.40;;
35667;SDS011;22158;59.280;17.806;2022-08-14T15:10:00;5.95;;;2.13;;
35667;SDS011;22158;59.280;17.806;2022-08-14T15:12:26;5.55;;;2.33;;
35667;SDS011;22158;59.280;17.806;2022-08-14T15:14:52;9.88;;;2.58;;
35667;SDS011;22158;59.280;17.806;2022-08-14T15:17:19;6.75;;;2.10;;